createdAt,value
2022-12-31T00:01:40.445Z,8.82
2022-12-31T00:04:07.147Z,7.05
2022-12-31T00:06:35.822Z,8.15
2022-12-31T00:09:06.745Z,7.60
2022-12-31T00:11:34.920Z,8.27
2022-12-31T00:14:01.984Z,8.68
2022-12-31T00:16:32.230Z,7.75
2022-12-31T00:19:00.422Z,7.63
2022-12-31T00:21:29.554Z,6.70
2022-12-31T00:23:56.762Z,7.40
2022-12-31T00:26:29.328Z,7.70
2022-12-31T00:28:57.853Z,6.15
2022-12-31T00:31:34.716Z,5.97
2022-12-31T00:34:01.618Z,6.47
2022-12-31T00:36:35.317Z,6.88
2022-12-31T00:39:03.293Z,9.25
2022-12-31T00:41:30.720Z,23.75
2022-12-31T00:43:57.951Z,6.68
2022-12-31T00:46:25.200Z,6.22
2022-12-31T00:48:52.145Z,6.22
2022-12-31T00:51:21.404Z,7.05
2022-12-31T00:53:48.201Z,6.25
2022-12-31T00:56:17.743Z,6.30
2022-12-31T00:58:45.019Z,6.97
2022-12-31T01:01:16.144Z,5.43
2022-12-31T01:03:43.475Z,6.32
2022-12-31T01:06:10.296Z,5.53
2022-12-31T01:08:37.548Z,6.20
2022-12-31T01:11:05.329Z,5.63
2022-12-31T01:13:32.011Z,5.80
2022-12-31T01:15:58.738Z,6.00
2022-12-31T01:18:26.344Z,7.30
2022-12-31T01:20:53.117Z,5.50
2022-12-31T01:23:19.747Z,6.70
2022-12-31T01:25:46.442Z,5.53
2022-12-31T01:28:13.181Z,5.72
2022-12-31T01:30:40.252Z,4.93
2022-12-31T01:33:06.993Z,5.30
2022-12-31T01:35:36.734Z,4.65
2022-12-31T01:38:04.024Z,6.57
2022-12-31T01:40:30.978Z,6.10
2022-12-31T01:42:58.208Z,5.28
2022-12-31T01:45:25.231Z,4.47
2022-12-31T01:47:59.888Z,4.65
2022-12-31T01:50:32.887Z,5.32
2022-12-31T01:53:05.099Z,6.28
2022-12-31T01:55:33.702Z,6.68
2022-12-31T01:58:23.387Z,5.65
2022-12-31T02:00:52.301Z,5.70
2022-12-31T02:03:22.247Z,6.07
2022-12-31T02:06:24.700Z,5.85
2022-12-31T02:08:51.446Z,5.68
2022-12-31T02:11:24.075Z,5.53
2022-12-31T02:13:58.328Z,5.15
2022-12-31T02:16:38.203Z,5.07
2022-12-31T02:19:38.556Z,4.65
2022-12-31T02:22:09.824Z,5.88
2022-12-31T02:25:16.609Z,6.30
2022-12-31T02:28:07.429Z,4.53
2022-12-31T02:30:36.615Z,6.53
2022-12-31T02:33:19.469Z,5.28
2022-12-31T02:36:02.799Z,5.07
2022-12-31T02:38:33.210Z,5.45
2022-12-31T02:43:26.872Z,5.47
2022-12-31T02:46:15.970Z,4.53
2022-12-31T02:48:52.663Z,4.88
2022-12-31T02:51:39.574Z,5.28
2022-12-31T02:54:17.708Z,4.60
2022-12-31T02:56:50.285Z,4.75
2022-12-31T02:59:25.904Z,4.75
2022-12-31T03:01:59.933Z,5.00
2022-12-31T03:04:28.131Z,6.53
2022-12-31T03:06:55.020Z,5.65
2022-12-31T03:09:21.895Z,4.72
2022-12-31T03:11:48.940Z,6.00
2022-12-31T03:14:15.748Z,5.05
2022-12-31T03:16:42.424Z,4.97
2022-12-31T03:19:09.180Z,4.95
2022-12-31T03:21:35.985Z,4.30
2022-12-31T03:24:02.897Z,4.20
2022-12-31T03:26:29.588Z,4.57
2022-12-31T03:28:56.239Z,4.82
2022-12-31T03:31:23.025Z,5.65
2022-12-31T03:33:49.781Z,5.28
2022-12-31T03:36:16.563Z,4.93
2022-12-31T03:38:44.177Z,5.00
2022-12-31T03:41:13.080Z,5.63
2022-12-31T03:43:40.131Z,4.68
2022-12-31T03:46:06.915Z,5.38
2022-12-31T03:48:33.653Z,6.65
2022-12-31T03:51:00.393Z,4.65
2022-12-31T03:53:27.067Z,5.28
2022-12-31T03:55:54.254Z,4.40
2022-12-31T03:58:22.062Z,4.63
2022-12-31T04:00:49.651Z,5.30
2022-12-31T04:03:16.703Z,4.60
2022-12-31T04:05:44.060Z,4.78
2022-12-31T04:08:10.852Z,4.18
2022-12-31T04:10:37.592Z,4.93
2022-12-31T04:13:04.283Z,5.53
2022-12-31T04:15:31.074Z,6.03
2022-12-31T04:17:58.473Z,5.20
2022-12-31T04:20:25.260Z,4.82
2022-12-31T04:22:51.976Z,5.78
2022-12-31T04:25:18.840Z,8.43
2022-12-31T04:27:45.510Z,5.15
2022-12-31T04:30:14.085Z,6.55
2022-12-31T04:32:41.744Z,4.90
2022-12-31T04:35:09.437Z,3.72
2022-12-31T04:37:36.161Z,4.53
2022-12-31T04:40:06.247Z,3.33
2022-12-31T04:42:34.496Z,4.35
2022-12-31T04:45:01.225Z,4.22
2022-12-31T04:47:28.128Z,3.10
2022-12-31T04:49:54.995Z,3.92
2022-12-31T04:52:22.262Z,4.35
2022-12-31T04:54:49.017Z,4.05
2022-12-31T04:57:15.791Z,4.13
2022-12-31T04:59:42.456Z,3.70
2022-12-31T05:02:11.110Z,3.53
2022-12-31T05:04:38.083Z,3.28
2022-12-31T05:07:05.239Z,3.50
2022-12-31T05:09:31.951Z,5.20
2022-12-31T05:11:58.860Z,9.57
2022-12-31T05:14:26.678Z,3.85
2022-12-31T05:16:53.656Z,2.90
2022-12-31T05:19:20.362Z,6.10
2022-12-31T05:21:47.073Z,3.05
2022-12-31T05:24:13.830Z,12.13
2022-12-31T05:26:40.598Z,4.32
2022-12-31T05:29:07.326Z,3.75
2022-12-31T05:31:34.022Z,6.32
2022-12-31T05:34:00.692Z,3.85
2022-12-31T05:36:27.489Z,4.88
2022-12-31T05:38:54.189Z,3.10
2022-12-31T05:41:20.886Z,7.53
2022-12-31T05:43:47.558Z,4.97
2022-12-31T05:46:14.305Z,4.05
2022-12-31T05:48:41.078Z,3.63
2022-12-31T05:51:08.444Z,3.55
2022-12-31T05:53:36.425Z,3.97
2022-12-31T05:56:03.280Z,3.85
2022-12-31T05:58:30.547Z,5.43
2022-12-31T06:00:59.486Z,3.30
2022-12-31T06:03:26.555Z,4.75
2022-12-31T06:05:53.312Z,5.28
2022-12-31T06:08:20.129Z,3.55
2022-12-31T06:10:47.524Z,3.00
2022-12-31T06:13:14.273Z,4.32
2022-12-31T06:15:40.939Z,4.97
2022-12-31T06:18:08.185Z,4.10
2022-12-31T06:20:38.061Z,2.70
2022-12-31T06:23:04.965Z,2.85
2022-12-31T06:25:31.641Z,2.30
2022-12-31T06:27:58.384Z,2.42
2022-12-31T06:30:25.139Z,2.53
2022-12-31T06:32:51.912Z,2.58
2022-12-31T06:35:18.622Z,3.47
2022-12-31T06:37:45.310Z,3.72
2022-12-31T06:40:12.303Z,4.50
2022-12-31T06:42:39.127Z,2.70
2022-12-31T06:45:06.567Z,2.40
2022-12-31T06:47:33.305Z,2.00
2022-12-31T06:50:00.084Z,2.00
2022-12-31T06:52:26.942Z,3.63
2022-12-31T06:54:53.921Z,3.22
2022-12-31T06:57:20.928Z,3.13
2022-12-31T06:59:47.909Z,3.05
2022-12-31T07:02:19.157Z,5.45
2022-12-31T07:05:13.007Z,3.58
2022-12-31T07:08:02.532Z,4.05
2022-12-31T07:10:47.164Z,5.38
2022-12-31T07:13:51.570Z,4.18
2022-12-31T07:16:30.251Z,8.77
2022-12-31T07:19:34.022Z,3.63
2022-12-31T07:22:00.964Z,4.18
2022-12-31T07:24:28.153Z,6.00
2022-12-31T07:27:05.202Z,9.63
2022-12-31T07:29:37.484Z,14.18
2022-12-31T07:32:34.702Z,6.40
2022-12-31T07:35:19.608Z,6.28
2022-12-31T07:38:16.368Z,4.78
2022-12-31T07:41:12.205Z,7.03
2022-12-31T07:44:00.615Z,6.18
2022-12-31T07:46:55.111Z,6.25
2022-12-31T07:49:22.784Z,4.43
2022-12-31T07:51:49.932Z,4.90
2022-12-31T07:54:16.736Z,6.78
2022-12-31T07:56:44.343Z,5.13
2022-12-31T07:59:32.599Z,8.45
2022-12-31T08:02:27.410Z,9.80
2022-12-31T08:05:15.694Z,12.23
2022-12-31T08:07:54.325Z,13.40
2022-12-31T08:10:57.860Z,13.57
2022-12-31T08:13:25.392Z,14.75
2022-12-31T08:15:52.437Z,9.98
2022-12-31T08:18:19.421Z,9.63
2022-12-31T08:21:07.355Z,11.13
2022-12-31T08:23:47.451Z,11.48
2022-12-31T08:26:32.500Z,17.85
2022-12-31T08:29:14.335Z,12.05
2022-12-31T08:31:54.110Z,11.70
2022-12-31T08:34:41.340Z,6.82
2022-12-31T08:37:18.448Z,10.07
2022-12-31T08:40:15.893Z,10.50
2022-12-31T08:42:57.959Z,11.57
2022-12-31T08:45:49.607Z,9.40
2022-12-31T08:48:40.700Z,9.82
2022-12-31T08:51:17.401Z,7.28
2022-12-31T08:53:44.440Z,9.15
2022-12-31T08:56:21.241Z,4.97
2022-12-31T08:59:00.037Z,6.88
2022-12-31T09:01:30.427Z,4.30
2022-12-31T09:06:33.922Z,5.03
2022-12-31T09:09:12.274Z,5.10
2022-12-31T09:12:03.674Z,5.45
2022-12-31T09:14:55.565Z,4.97
2022-12-31T09:17:47.220Z,3.78
2022-12-31T09:20:17.145Z,4.95
2022-12-31T09:22:44.113Z,4.47
2022-12-31T09:25:19.940Z,2.75
2022-12-31T09:28:11.790Z,6.15
2022-12-31T09:30:58.742Z,3.63
2022-12-31T09:33:55.611Z,3.15
2022-12-31T09:36:28.377Z,4.95
2022-12-31T09:39:33.078Z,3.63
2022-12-31T09:42:35.016Z,6.10
2022-12-31T09:45:19.975Z,6.75
2022-12-31T09:48:17.164Z,3.78
2022-12-31T09:51:02.407Z,8.85
2022-12-31T09:53:29.128Z,6.00
2022-12-31T09:56:11.587Z,13.57
2022-12-31T09:59:10.294Z,5.38
2022-12-31T10:01:50.533Z,9.15
2022-12-31T10:04:54.012Z,12.65
2022-12-31T10:07:52.173Z,8.70
2022-12-31T10:10:30.525Z,10.40
2022-12-31T10:13:28.202Z,12.25
2022-12-31T10:16:24.983Z,13.07
2022-12-31T10:19:13.051Z,8.27
2022-12-31T10:21:42.532Z,7.40
2022-12-31T10:24:40.077Z,10.18
2022-12-31T10:27:47.927Z,10.32
2022-12-31T10:30:23.732Z,10.90
2022-12-31T10:33:06.968Z,5.80
2022-12-31T10:35:42.701Z,12.10
2022-12-31T10:38:35.316Z,11.75
2022-12-31T10:41:21.004Z,10.13
2022-12-31T10:43:50.271Z,4.93
2022-12-31T10:46:55.507Z,7.32
2022-12-31T10:49:37.092Z,5.40
2022-12-31T10:52:25.137Z,7.10
2022-12-31T10:55:07.190Z,7.13
2022-12-31T10:58:10.510Z,5.15
2022-12-31T11:00:56.162Z,6.68
2022-12-31T11:03:53.641Z,8.90
2022-12-31T11:06:56.976Z,6.97
2022-12-31T11:10:03.997Z,9.10
2022-12-31T11:13:03.858Z,8.43
2022-12-31T11:15:50.434Z,6.85
2022-12-31T11:18:31.317Z,7.78
2022-12-31T11:21:10.065Z,9.23
2022-12-31T11:24:05.955Z,7.57
2022-12-31T11:26:44.771Z,8.70
2022-12-31T11:29:22.090Z,14.10
2022-12-31T11:32:06.899Z,15.25
2022-12-31T11:34:48.864Z,10.02
2022-12-31T11:37:30.007Z,6.50
2022-12-31T11:40:14.642Z,11.63
2022-12-31T11:43:18.606Z,10.77
2022-12-31T11:45:54.041Z,6.85
2022-12-31T11:48:36.757Z,4.47
2022-12-31T11:51:37.651Z,6.88
2022-12-31T11:54:26.050Z,7.05
2022-12-31T11:57:11.867Z,9.75
2022-12-31T11:59:38.816Z,6.53
2022-12-31T12:02:28.234Z,6.97
2022-12-31T12:04:57.902Z,5.40
2022-12-31T12:07:25.983Z,6.15
2022-12-31T12:09:55.375Z,5.57
2022-12-31T12:12:22.522Z,7.97
2022-12-31T12:14:55.478Z,5.30
2022-12-31T12:17:33.477Z,2.90
2022-12-31T12:20:08.432Z,4.57
2022-12-31T12:22:35.631Z,3.92
2022-12-31T12:25:15.929Z,4.88
2022-12-31T12:27:42.797Z,2.42
2022-12-31T12:30:22.441Z,3.10
2022-12-31T12:33:00.595Z,3.80
2022-12-31T12:35:31.760Z,2.67
2022-12-31T12:38:14.440Z,2.75
2022-12-31T12:40:41.591Z,4.15
2022-12-31T12:43:22.230Z,3.75
2022-12-31T12:45:52.397Z,3.38
2022-12-31T12:48:37.130Z,2.40
2022-12-31T12:51:28.140Z,1.83
2022-12-31T12:54:00.746Z,2.00
2022-12-31T12:56:42.288Z,2.75
2022-12-31T12:59:40.646Z,1.90
2022-12-31T13:02:47.108Z,1.90
2022-12-31T13:05:27.925Z,2.10
2022-12-31T13:08:16.919Z,3.28
2022-12-31T13:11:01.561Z,2.60
2022-12-31T13:13:53.551Z,5.05
2022-12-31T13:16:25.839Z,4.90
2022-12-31T13:19:08.305Z,4.03
2022-12-31T13:21:40.126Z,7.05
2022-12-31T13:24:29.639Z,3.40
2022-12-31T13:27:20.873Z,2.25
2022-12-31T13:29:48.309Z,5.47
2022-12-31T13:32:23.742Z,4.40
2022-12-31T13:34:56.412Z,4.35
2022-12-31T13:37:31.849Z,2.85
2022-12-31T13:40:05.616Z,5.60
2022-12-31T13:42:42.455Z,7.78
2022-12-31T13:45:22.037Z,7.05
2022-12-31T13:47:54.893Z,8.57
2022-12-31T13:50:22.095Z,2.47
2022-12-31T13:52:54.648Z,2.05
2022-12-31T13:55:30.182Z,4.85
2022-12-31T13:58:05.873Z,4.40
2022-12-31T14:00:43.650Z,3.70
